Disclaimer

Please do not use the information listed here in-flight or in-navigation, as they are not provided to us by the airports but are provided by volunteers, so they might be outdated.

Search


Regions


Airport information page

No radio frequency information is available.

Airport informations:
Latitude: 33° 35' 11.78" N
Longitude: 046° 24' 17.43" E
Elevation: 4404 feet - 1342 meters
Operating hours: From sunrise to sunset (SR-SS)
Operating agency: Civil government, landing fees and diplomatic clearance may be required
Timezone: UTC+3:30
Fuel: Jet A1+, Jet A1 with icing inhibitor.

Runway information:
14/32 - 9183 x 148 feet< - >2799 x 45 meters

Recent METARs:
OICI 211100Z 25008KT CAVOK 16/04 Q1022 A3018
OICI 211100Z 25008KT CAVOK 16/04 Q1022 A3018
OICI 211200Z 25006KT CAVOK 15/03 Q1022 A3018

Airport on the map: